| time (UTC) | temp C | wind direction | speed KPH | gust KPH | rain 1hr cm | rain 24hr cm | rain mn cm | humidity % | barometer mb |
| 20260504174822 | 21 | 200 | 3.2 | 16.1 | 0.00 | 0.00 | 0.00 | 42 | 1013.1 |
| 20260504174328 | 21 | 232 | 6.4 | 16.1 | 0.00 | 0.00 | 0.00 | 37 | 1013.1 |
| 20260504173833 | 21 | 254 | 8.0 | 16.1 | 0.00 | 0.00 | 0.00 | 39 | 1013.1 |
| 20260504173321 | 21 | 194 | 3.2 | 16.1 | 0.00 | 0.00 | 0.00 | 38 | 1013.2 |
| 20260504172848 | 21 | 236 | 8.0 | 16.1 | 0.00 | 0.00 | 0.00 | 40 | 1013.2 |
| 20260504172332 | 21 | 264 | 6.4 | 16.1 | 0.00 | 0.00 | 0.00 | 37 | 1013.2 |
| 20260504171839 | 21 | 267 | 1.6 | 14.5 | 0.00 | 0.00 | 0.00 | 37 | 1013.2 |
| 20260504171325 | 21 | 238 | 3.2 | 22.5 | 0.00 | 0.00 | 0.00 | 41 | 1013.2 |
| 20260504170832 | 21 | 250 | 9.7 | 22.5 | 0.00 | 0.00 | 0.00 | 37 | 1013.4 |
| 20260504170338 | 21 | 102 | 0.0 | 17.7 | 0.00 | 0.00 | 0.00 | 42 | 1013.3 |
| 20260504160330 | 20 | 167 | 4.8 | 16.1 | 0.00 | 0.00 | 0.00 | 40 | 1014.2 |
| 20260504150859 | 18 | 160 | 4.8 | 14.5 | 0.00 | 0.00 | 0.00 | 41 | 1014.6 |
| 20260504150344 | 18 | 256 | 4.8 | 12.9 | 0.00 | 0.00 | 0.00 | 42 | 1014.6 |
| 20260504141329 | 16 | 205 | 3.2 | 8.0 | 0.00 | 0.00 | 0.00 | 47 | 1014.7 |
| 20260504140834 | 16 | 216 | 1.6 | 8.0 | 0.00 | 0.00 | 0.00 | 47 | 1014.7 |
| 20260504140359 | 15 | 196 | 1.6 | 14.5 | 0.00 | 0.00 | 0.00 | 51 | 1014.8 |
| 20260504130321 | 12 | 223 | 3.2 | 9.7 | 0.00 | 0.00 | 0.00 | 58 | 1015.0 |
| 20260504110337 | 6 | 290 | 0.0 | 3.2 | 0.00 | 0.00 | 0.00 | 81 | 1015.4 |
| 20260504100323 | 6 | 290 | 0.0 | 0.0 | 0.00 | 0.00 | 0.00 | 80 | 1015.3 |
| 20260504081845 | 5 | 290 | 0.0 | 0.0 | 0.00 | 0.00 | 0.00 | 84 | 1016.0 |
| 20260504081329 | 5 | 290 | 0.0 | 0.0 | 0.00 | 0.00 | 0.00 | 85 | 1016.1 |
| 20260504080836 | 5 | 290 | 0.0 | 0.0 | 0.00 | 0.00 | 0.00 | 85 | 1016.1 |
| 20260504080323 | 5 | 290 | 0.0 | 0.0 | 0.00 | 0.00 | 0.00 | 85 | 1016.1 |
| 20260504070320 | 5 | 290 | 0.0 | 0.0 | 0.00 | 0.00 | 0.00 | 83 | 1016.2 |
| 20260504050335 | 4 | 290 | 0.0 | 0.0 | 0.00 | 0.00 | 0.00 | 82 | 1016.5 |
| 20260504045832 | 4 | 290 | 0.0 | 0.0 | 0.00 | 0.00 | 0.00 | 82 | 1016.5 |
| 20260504045339 | 4 | 290 | 0.0 | 0.0 | 0.00 | 0.00 | 0.00 | 82 | 1016.4 |
| 20260504044826 | 5 | 290 | 0.0 | 0.0 | 0.00 | 0.00 | 0.00 | 81 | 1016.4 |
| 20260504044330 | 5 | 290 | 0.0 | 0.0 | 0.00 | 0.00 | 0.00 | 81 | 1016.4 |
| 20260504043856 | 5 | 290 | 0.0 | 0.0 | 0.00 | 0.00 | 0.00 | 80 | 1016.4 |
| 20260504043325 | 5 | 290 | 0.0 | 0.0 | 0.00 | 0.00 | 0.00 | 80 | 1016.4 |
| 20260504042831 | 5 | 290 | 0.0 | 0.0 | 0.00 | 0.00 | 0.00 | 79 | 1016.5 |
| 20260504042337 | 5 | 290 | 0.0 | 0.0 | 0.00 | 0.00 | 0.00 | 79 | 1016.4 |
| 20260504041823 | 5 | 290 | 0.0 | 0.0 | 0.00 | 0.00 | 0.00 | 78 | 1016.4 |
| 20260504041328 | 5 | 290 | 0.0 | 0.0 | 0.00 | 0.00 | 0.00 | 77 | 1016.4 |
| 20260504040834 | 5 | 290 | 0.0 | 0.0 | 0.00 | 0.00 | 0.00 | 77 | 1016.4 |
| 20260504040338 | 5 | 290 | 0.0 | 0.0 | 0.00 | 0.00 | 0.00 | 77 | 1016.2 |
| 20260504035833 | 5 | 290 | 0.0 | 0.0 | 0.00 | 0.00 | 0.00 | 76 | 1016.1 |
| 20260504035339 | 6 | 290 | 0.0 | 1.6 | 0.00 | 0.00 | 0.00 | 75 | 1016.1 |
| 20260504034826 | 6 | 290 | 0.0 | 1.6 | 0.00 | 0.00 | 0.00 | 75 | 1016.2 |
| 20260504034353 | 6 | 290 | 0.0 | 0.0 | 0.00 | 0.00 | 0.00 | 73 | 1016.1 |
| 20260504033857 | 6 | 290 | 0.0 | 0.0 | 0.00 | 0.00 | 0.00 | 73 | 1016.1 |
| 20260504033326 | 6 | 290 | 0.0 | 0.0 | 0.00 | 0.00 | 0.00 | 74 | 1016.1 |
| 20260504032832 | 6 | 290 | 0.0 | 0.0 | 0.00 | 0.00 | 0.00 | 73 | 1015.9 |
| 20260504032358 | 6 | 290 | 0.0 | 0.0 | 0.00 | 0.00 | 0.00 | 73 | 1016.0 |
| 20260504031822 | 6 | 290 | 0.0 | 0.0 | 0.00 | 0.00 | 0.00 | 72 | 1016.1 |
| 20260504031327 | 6 | 290 | 0.0 | 0.0 | 0.00 | 0.00 | 0.00 | 72 | 1016.1 |
| 20260504030832 | 6 | 290 | 0.0 | 0.0 | 0.00 | 0.00 | 0.00 | 71 | 1016.0 |
| 20260504030338 | 6 | 290 | 0.0 | 0.0 | 0.00 | 0.00 | 0.00 | 70 | 1016.1 |
| 20260504025835 | 6 | 290 | 0.0 | 0.0 | 0.00 | 0.00 | 0.00 | 70 | 1016.1 |
| 20260504025320 | 6 | 290 | 0.0 | 0.0 | 0.00 | 0.00 | 0.00 | 69 | 1016.0 |
| 20260504024827 | 6 | 290 | 0.0 | 0.0 | 0.00 | 0.00 | 0.00 | 69 | 1016.1 |
| 20260504024351 | 6 | 290 | 0.0 | 0.0 | 0.00 | 0.00 | 0.00 | 70 | 1016.0 |
| 20260504023836 | 6 | 290 | 0.0 | 0.0 | 0.00 | 0.00 | 0.00 | 68 | 1016.1 |
| 20260504023325 | 7 | 290 | 0.0 | 0.0 | 0.00 | 0.00 | 0.00 | 67 | 1016.1 |
| 20260504022830 | 7 | 290 | 0.0 | 0.0 | 0.00 | 0.00 | 0.00 | 67 | 1016.1 |
| 20260504022337 | 7 | 290 | 0.0 | 0.0 | 0.00 | 0.00 | 0.00 | 67 | 1016.1 |
| 20260504021822 | 7 | 290 | 0.0 | 0.0 | 0.00 | 0.00 | 0.00 | 69 | 1016.0 |
| 20260504021330 | 7 | 290 | 0.0 | 0.0 | 0.00 | 0.00 | 0.00 | 67 | 1015.9 |
| 20260504020836 | 7 | 290 | 0.0 | 0.0 | 0.00 | 0.00 | 0.00 | 66 | 1015.9 |
| 20260504020321 | 7 | 290 | 0.0 | 0.0 | 0.00 | 0.00 | 0.00 | 67 | 1015.9 |
| 20260504015837 | 7 | 290 | 0.0 | 0.0 | 0.00 | 0.00 | 0.00 | 68 | 1015.9 |
| 20260504015322 | 8 | 290 | 0.0 | 0.0 | 0.00 | 0.00 | 0.00 | 65 | 1015.9 |
| 20260504014826 | 8 | 290 | 0.0 | 0.0 | 0.00 | 0.00 | 0.00 | 65 | 1015.9 |
| 20260504014331 | 8 | 290 | 0.0 | 0.0 | 0.00 | 0.00 | 0.00 | 63 | 1015.9 |
| 20260504013840 | 8 | 290 | 0.0 | 0.0 | 0.00 | 0.00 | 0.00 | 63 | 1015.9 |
| 20260504013325 | 8 | 290 | 0.0 | 0.0 | 0.00 | 0.00 | 0.00 | 63 | 1015.8 |
| 20260504012850 | 9 | 290 | 0.0 | 0.0 | 0.00 | 0.00 | 0.00 | 62 | 1015.9 |
| 20260504012334 | 9 | 290 | 0.0 | 0.0 | 0.00 | 0.00 | 0.00 | 62 | 1015.7 |
| 20260504011821 | 9 | 290 | 0.0 | 0.0 | 0.00 | 0.00 | 0.00 | 60 | 1015.8 |
| 20260504011328 | 9 | 290 | 0.0 | 0.0 | 0.00 | 0.00 | 0.00 | 60 | 1015.6 |
| 20260504010833 | 10 | 290 | 0.0 | 0.0 | 0.00 | 0.00 | 0.00 | 57 | 1015.6 |
| 20260504010338 | 10 | 290 | 0.0 | 0.0 | 0.00 | 0.00 | 0.00 | 57 | 1015.5 |
| 20260504005836 | 10 | 290 | 0.0 | 0.0 | 0.00 | 0.00 | 0.00 | 58 | 1015.5 |
| 20260504005321 | 10 | 290 | 0.0 | 0.0 | 0.00 | 0.00 | 0.00 | 57 | 1015.4 |
| 20260504004847 | 10 | 290 | 0.0 | 0.0 | 0.00 | 0.00 | 0.00 | 54 | 1015.3 |
| 20260504004351 | 11 | 290 | 0.0 | 0.0 | 0.00 | 0.00 | 0.00 | 53 | 1015.3 |
| 20260504003853 | 11 | 290 | 0.0 | 0.0 | 0.00 | 0.00 | 0.00 | 53 | 1015.3 |
| 20260504003322 | 11 | 290 | 0.0 | 0.0 | 0.00 | 0.00 | 0.00 | 52 | 1015.3 |
| 20260504002828 | 11 | 290 | 0.0 | 0.0 | 0.00 | 0.00 | 0.00 | 51 | 1015.2 |
| 20260504002336 | 12 | 290 | 0.0 | 0.0 | 0.00 | 0.00 | 0.00 | 49 | 1015.1 |
| 20260504001821 | 12 | 290 | 0.0 | 0.0 | 0.00 | 0.00 | 0.00 | 48 | 1015.2 |
| 20260504001326 | 12 | 290 | 0.0 | 0.0 | 0.00 | 0.00 | 0.00 | 47 | 1015.1 |
| 20260504000833 | 12 | 290 | 0.0 | 0.0 | 0.00 | 0.00 | 0.00 | 47 | 1015.1 |
| 20260504000319 | 13 | 290 | 0.0 | 0.0 | 0.00 | 0.00 | 0.00 | 45 | 1014.9 |
| 20260503235835 | 13 | 290 | 0.0 | 0.0 | 0.00 | 0.00 | 0.00 | 42 | 1014.9 |
| 20260503235320 | 13 | 290 | 0.0 | 0.0 | 0.00 | 0.00 | 0.00 | 42 | 1014.9 |
| 20260503234826 | 14 | 290 | 0.0 | 6.4 | 0.00 | 0.00 | 0.00 | 41 | 1014.9 |
| 20260503234332 | 14 | 290 | 0.0 | 6.4 | 0.00 | 0.00 | 0.00 | 37 | 1014.9 |
| 20260503233822 | 14 | 294 | 1.6 | 4.8 | 0.00 | 0.00 | 0.00 | 37 | 1014.8 |
| 20260503233328 | 15 | 295 | 0.0 | 4.8 | 0.00 | 0.00 | 0.00 | 36 | 1014.8 |
| 20260503232832 | 15 | 295 | 1.6 | 6.4 | 0.00 | 0.00 | 0.00 | 37 | 1014.7 |
| 20260503232339 | 15 | 296 | 1.6 | 9.7 | 0.00 | 0.00 | 0.00 | 35 | 1014.7 |
| 20260503231825 | 15 | 319 | 1.6 | 8.0 | 0.00 | 0.00 | 0.00 | 36 | 1014.6 |
| 20260503231331 | 15 | 301 | 1.6 | 9.7 | 0.00 | 0.00 | 0.00 | 36 | 1014.5 |
| 20260503230857 | 15 | 298 | 4.8 | 9.7 | 0.00 | 0.00 | 0.00 | 36 | 1014.5 |
| 20260503230321 | 15 | 300 | 3.2 | 16.1 | 0.00 | 0.00 | 0.00 | 34 | 1014.5 |
| 20260503225836 | 15 | 329 | 6.4 | 17.7 | 0.00 | 0.00 | 0.00 | 33 | 1014.5 |
| 20260503225342 | 16 | 294 | 8.0 | 17.7 | 0.00 | 0.00 | 0.00 | 34 | 1014.5 |
| 20260503224828 | 16 | 313 | 3.2 | 17.7 | 0.00 | 0.00 | 0.00 | 33 | 1014.6 |
| 20260503224353 | 16 | 360 | 6.4 | 12.9 | 0.00 | 0.00 | 0.00 | 33 | 1014.6 |
| 20260503223857 | 16 | 295 | 0.0 | 16.1 | 0.00 | 0.00 | 0.00 | 34 | 1014.6 |
| 20260503223325 | 16 | 316 | 8.0 | 16.1 | 0.00 | 0.00 | 0.00 | 32 | 1014.6 |
| 20260503222833 | 16 | 321 | 3.2 | 12.9 | 0.00 | 0.00 | 0.00 | 34 | 1014.7 |
| 20260503222400 | 16 | 315 | 3.2 | 12.9 | 0.00 | 0.00 | 0.00 | 33 | 1014.7 |
| 20260503221824 | 16 | 298 | 4.8 | 17.7 | 0.00 | 0.00 | 0.00 | 33 | 1014.6 |
| 20260503221329 | 16 | 31 | 6.4 | 20.9 | 0.00 | 0.00 | 0.00 | 33 | 1014.7 |
| 20260503220836 | 16 | 295 | 8.0 | 20.9 | 0.00 | 0.00 | 0.00 | 33 | 1014.7 |
| 20260503220320 | 16 | 222 | 9.7 | 16.1 | 0.00 | 0.00 | 0.00 | 33 | 1014.7 |
| 20260503215857 | 16 | 294 | 3.2 | 19.3 | 0.00 | 0.00 | 0.00 | 34 | 1014.6 |
| 20260503215321 | 16 | 296 | 4.8 | 22.5 | 0.00 | 0.00 | 0.00 | 33 | 1014.8 |
| 20260503214848 | 16 | 268 | 4.8 | 19.3 | 0.00 | 0.00 | 0.00 | 35 | 1014.9 |
| 20260503214334 | 16 | 324 | 11.3 | 19.3 | 0.00 | 0.00 | 0.00 | 32 | 1014.8 |
| 20260503213839 | 16 | 228 | 4.8 | 16.1 | 0.00 | 0.00 | 0.00 | 34 | 1014.7 |
| 20260503213324 | 16 | 265 | 3.2 | 12.9 | 0.00 | 0.00 | 0.00 | 34 | 1014.7 |
| 20260503212833 | 16 | 261 | 6.4 | 16.1 | 0.00 | 0.00 | 0.00 | 33 | 1014.7 |
| 20260503212337 | 16 | 213 | 8.0 | 19.3 | 0.00 | 0.00 | 0.00 | 33 | 1014.7 |
| 20260503211824 | 16 | 28 | 6.4 | 19.3 | 0.00 | 0.00 | 0.00 | 32 | 1014.4 |
| 20260503210835 | 16 | 223 | 8.0 | 24.1 | 0.00 | 0.00 | 0.00 | 33 | 1014.7 |
| 20260503210321 | 16 | 257 | 6.4 | 17.7 | 0.00 | 0.00 | 0.00 | 32 | 1014.8 |
| 20260503205857 | 16 | 11 | 6.4 | 22.5 | 0.00 | 0.00 | 0.00 | 33 | 1014.7 |
| 20260503205321 | 16 | 261 | 11.3 | 24.1 | 0.00 | 0.00 | 0.00 | 31 | 1014.8 |
| 20260503204828 | 16 | 262 | 4.8 | 17.7 | 0.00 | 0.00 | 0.00 | 34 | 1014.6 |
| 20260503204335 | 16 | 360 | 3.2 | 19.3 | 0.00 | 0.00 | 0.00 | 32 | 1014.8 |
| 20260503203821 | 16 | 5 | 8.0 | 22.5 | 0.00 | 0.00 | 0.00 | 33 | 1014.9 |
| 20260503203330 | 16 | 253 | 9.7 | 22.5 | 0.00 | 0.00 | 0.00 | 31 | 1014.7 |
| 20260503202836 | 16 | 286 | 11.3 | 19.3 | 0.00 | 0.00 | 0.00 | 30 | 1014.9 |
| 20260503202321 | 16 | 355 | 3.2 | 16.1 | 0.00 | 0.00 | 0.00 | 31 | 1014.8 |
| 20260503201827 | 16 | 355 | 4.8 | 19.3 | 0.00 | 0.00 | 0.00 | 33 | 1014.9 |
| 20260503201354 | 16 | 360 | 6.4 | 19.3 | 0.00 | 0.00 | 0.00 | 34 | 1014.9 |
| 20260503200858 | 16 | 360 | 4.8 | 20.9 | 0.00 | 0.00 | 0.00 | 34 | 1015.0 |
| 20260503200324 | 16 | 282 | 6.4 | 29.0 | 0.00 | 0.00 | 0.00 | 34 | 1015.0 |
| 20260503195840 | 16 | 276 | 9.7 | 29.0 | 0.00 | 0.00 | 0.00 | 32 | 1015.2 |
| 20260503195324 | 16 | 291 | 9.7 | 27.4 | 0.00 | 0.00 | 0.00 | 32 | 1015.2 |
| 20260503194828 | 15 | 38 | 1.6 | 27.4 | 0.00 | 0.00 | 0.00 | 35 | 1015.2 |
| 20260503194353 | 15 | 268 | 11.3 | 24.1 | 0.00 | 0.00 | 0.00 | 31 | 1015.4 |
| 20260503193837 | 15 | 247 | 8.0 | 24.1 | 0.00 | 0.00 | 0.00 | 35 | 1015.3 |
| 20260503193320 | 15 | 335 | 9.7 | 24.1 | 0.00 | 0.00 | 0.00 | 36 | 1015.6 |
| 20260503192846 | 15 | 267 | 11.3 | 24.1 | 0.00 | 0.00 | 0.00 | 35 | 1015.6 |
| 20260503192351 | 15 | 312 | 9.7 | 24.1 | 0.00 | 0.00 | 0.00 | 35 | 1015.6 |
| 20260503191819 | 15 | 297 | 6.4 | 20.9 | 0.00 | 0.00 | 0.00 | 38 | 1015.7 |
| 20260503191325 | 15 | 297 | 0.0 | 19.3 | 0.00 | 0.00 | 0.00 | 42 | 1015.7 |
| 20260503190831 | 15 | 284 | 8.0 | 33.8 | 0.00 | 0.00 | 0.00 | 37 | 1015.8 |
| 20260503190337 | 15 | 323 | 8.0 | 33.8 | 0.00 | 0.00 | 0.00 | 35 | 1015.6 |
| 20260503185833 | 15 | 236 | 8.0 | 25.7 | 0.00 | 0.00 | 0.00 | 34 | 1015.8 |
| 20260503185340 | 14 | 250 | 9.7 | 25.7 | 0.00 | 0.00 | 0.00 | 36 | 1015.8 |
| 20260503184826 | 14 | 239 | 8.0 | 25.7 | 0.00 | 0.00 | 0.00 | 39 | 1015.8 |
| 20260503184332 | 14 | 279 | 11.3 | 22.5 | 0.00 | 0.00 | 0.00 | 37 | 1016.0 |
| 20260503183858 | 14 | 239 | 9.7 | 22.5 | 0.00 | 0.00 | 0.00 | 39 | 1016.3 |
| 20260503183323 | 13 | 279 | 9.7 | 22.5 | 0.00 | 0.00 | 0.00 | 37 | 1016.1 |
| 20260503182827 | 13 | 26 | 6.4 | 17.7 | 0.00 | 0.00 | 0.00 | 39 | 1016.1 |
| 20260503182332 | 13 | 269 | 6.4 | 24.1 | 0.00 | 0.00 | 0.00 | 40 | 1016.2 |
| 20260503181821 | 13 | 277 | 11.3 | 25.7 | 0.00 | 0.00 | 0.00 | 39 | 1016.1 |
| 20260503181328 | 13 | 303 | 14.5 | 25.7 | 0.00 | 0.00 | 0.00 | 35 | 1016.1 |
| 20260503180835 | 13 | 304 | 6.4 | 19.3 | 0.00 | 0.00 | 0.00 | 40 | 1016.2 |
| 20260503180341 | 13 | 265 | 4.8 | 19.3 | 0.00 | 0.00 | 0.00 | 41 | 1016.2 |
| 20260503175836 | 14 | 315 | 9.7 | 20.9 | 0.00 | 0.00 | 0.00 | 42 | 1016.3 |
| 20260503175322 | 13 | 355 | 6.4 | 27.4 | 0.00 | 0.00 | 0.00 | 42 | 1016.2 |